createdAt,value
2023-05-19T00:03:12.143Z,8.41
2023-05-19T00:18:55.148Z,8.14
2023-05-19T00:34:37.876Z,7.91
2023-05-19T00:50:20.600Z,7.69
2023-05-19T01:06:03.576Z,7.47
2023-05-19T01:21:45.904Z,7.34
2023-05-19T01:37:28.060Z,7.26
2023-05-19T01:53:10.665Z,7.09
2023-05-19T02:08:53.455Z,6.93
2023-05-19T02:24:35.999Z,6.79
2023-05-19T02:40:18.776Z,6.66
2023-05-19T02:56:01.211Z,6.74
2023-05-19T03:11:43.418Z,6.8
2023-05-19T03:27:25.870Z,6.89
2023-05-19T03:43:08.511Z,7.04
2023-05-19T03:58:50.978Z,7.25
2023-05-19T04:14:33.395Z,7.6
2023-05-19T04:30:15.979Z,8.01
2023-05-19T04:45:58.105Z,8.42
2023-05-19T05:01:40.713Z,8.83
2023-05-19T05:17:22.822Z,9.29
2023-05-19T05:33:05.313Z,9.82
2023-05-19T05:48:47.410Z,10.62
2023-05-19T06:04:29.968Z,11.28
2023-05-19T06:20:12.383Z,11.95
2023-05-19T06:35:55.076Z,12.59
2023-05-19T06:51:37.498Z,13.2
2023-05-19T07:07:20.459Z,13.96
2023-05-19T07:23:03.457Z,14.87
2023-05-19T07:38:45.615Z,15.66
2023-05-19T07:54:28.400Z,16.14
2023-05-19T08:10:10.350Z,16.74
2023-05-19T08:25:52.904Z,17.73
2023-05-19T08:41:35.258Z,19.52
2023-05-19T08:57:18.166Z,20.41
2023-05-19T09:13:00.232Z,22.76
2023-05-19T09:28:42.884Z,23.01
2023-05-19T09:44:25.283Z,23.4
2023-05-19T10:00:07.237Z,23.94
2023-05-19T10:15:49.484Z,23.73
2023-05-19T10:31:31.828Z,23.44
2023-05-19T10:47:14.814Z,23.09
2023-05-19T11:02:57.032Z,23
2023-05-19T11:18:39.257Z,23.22
2023-05-19T11:34:21.868Z,23.24
2023-05-19T11:50:03.998Z,23.4
2023-05-19T12:05:46.225Z,23.71
2023-05-19T12:21:33.525Z,22.24
2023-05-19T12:37:10.914Z,21.63
2023-05-19T12:52:53.362Z,22.83
2023-05-19T13:08:35.957Z,23.51
2023-05-19T13:24:18.293Z,23.97
2023-05-19T13:40:01.308Z,26.07
2023-05-19T13:55:43.391Z,26.33
2023-05-19T14:11:25.585Z,24.53
2023-05-19T14:27:08.016Z,23.62
2023-05-19T14:42:50.712Z,24.63
2023-05-19T14:58:32.714Z,24.8
2023-05-19T15:14:15.525Z,25.99
2023-05-19T15:15:02.577Z,26.33
2023-05-19T15:30:45.211Z,28.04
2023-05-19T15:46:27.280Z,25.45
2023-05-19T16:17:52.201Z,21.3
2023-05-19T16:33:34.929Z,22.95
2023-05-19T16:49:17.162Z,23.21
2023-05-19T17:04:59.650Z,22.33
2023-05-19T17:20:42.135Z,23.01
2023-05-19T17:36:24.622Z,20.6
2023-05-19T17:52:06.821Z,19.25
2023-05-19T18:07:49.823Z,18.32
2023-05-19T18:23:32.502Z,17.49
2023-05-19T18:39:15.292Z,16.89
2023-05-19T18:54:58.127Z,16.19
2023-05-19T19:10:40.383Z,15.49
2023-05-19T19:26:22.802Z,14.95
2023-05-19T19:42:05.131Z,14.5
2023-05-19T19:57:47.810Z,14.17
2023-05-19T20:13:29.977Z,13.89
2023-05-19T20:29:12.864Z,13.63
2023-05-19T20:44:55.787Z,13.46
2023-05-19T21:00:37.834Z,13.26
2023-05-19T21:16:20.025Z,12.92
2023-05-19T21:32:02.286Z,12.57
2023-05-19T21:47:44.380Z,12.21
2023-05-19T22:03:27.021Z,11.89
2023-05-19T22:19:09.504Z,11.6
2023-05-19T22:50:34.857Z,11.11
2023-05-19T23:06:17.820Z,10.98
2023-05-19T23:22:00.366Z,10.83
2023-05-19T23:37:43.367Z,10.67
2023-05-19T23:53:25.587Z,10.5
